EGJA/ACI METAR and TAF weather

Enter ICAO airport designator
Station Type Date Time Source
EGJA METAR 2022/01/29 13:50 UTC NOAA

EGJA 291350Z 27017KT 9999 SCT003 BKN005 10/09 Q1033


Station Type Date Time Source
EGJA Decoded METAR 2022/01/29 13:50 UTC NOAA

Alderney / Channel Island, United Kingdom (EGJA) 49-43N 002-12W
Jan 29, 2022 - 08:50 AM EST / 2022.01.29 1350 UTC
Wind: from the W (270 degrees) at 20 MPH (17 KT):0
Visibility: greater than 7 mile(s):0
Sky conditions: mostly cloudy
Temperature: 50 F (10 C)
Dew Point: 48 F (9 C)
Relative Humidity: 93%
Pressure (altimeter): 30.50 in. Hg (1033 hPa)
ob: EGJA 291350Z 27017KT 9999 SCT003 BKN005 10/09 Q1033
cycle: 14

Station Type Date Time Source
EGJA TAF UTC NOAA

Error!

Example: see airport list